Aviation Digital Data Service (ADDS)

Output produced by METARs form (1859 UTC 21 November 2014)
found at http://aviationweather.gov/adds/metars/
 
KSAN 211721Z 2118/2224 VRB06KT P6SM FEW035 SCT045 
     FM211900 30010KT P6SM FEW045 SCT250 
     FM220200 VRB04KT P6SM FEW030 SCT250 
     FM222000 27008KT P6SM FEW250